sensor_id;sensor_type;location;lat;lon;timestamp;pressure;altitude;pressure_sealevel;temperature;humidity
66385;BME280;53426;55.872;37.462;2023-02-28T00:00:40;99694.09;;;-7.15;74.62
66385;BME280;53426;55.872;37.462;2023-02-28T00:03:06;99688.88;;;-7.09;74.40
66385;BME280;53426;55.872;37.462;2023-02-28T00:05:32;99677.84;;;-7.21;74.74
66385;BME280;53426;55.872;37.462;2023-02-28T00:07:58;99666.66;;;-7.16;74.84
66385;BME280;53426;55.872;37.462;2023-02-28T00:10:26;99681.91;;;-7.01;74.77
66385;BME280;53426;55.872;37.462;2023-02-28T00:12:55;99678.50;;;-7.03;74.32
66385;BME280;53426;55.872;37.462;2023-02-28T00:15:24;99675.13;;;-7.07;74.50
66385;BME280;53426;55.872;37.462;2023-02-28T00:17:50;99647.84;;;-7.25;74.26
66385;BME280;53426;55.872;37.462;2023-02-28T00:20:16;99665.75;;;-7.12;74.05
66385;BME280;53426;55.872;37.462;2023-02-28T00:22:44;99671.66;;;-7.04;74.76
66385;BME280;53426;55.872;37.462;2023-02-28T00:25:11;99671.63;;;-7.00;74.29
66385;BME280;53426;55.872;37.462;2023-02-28T00:27:39;99658.88;;;-7.13;74.10
66385;BME280;53426;55.872;37.462;2023-02-28T00:30:07;99661.44;;;-7.10;74.10
66385;BME280;53426;55.872;37.462;2023-02-28T00:32:33;99661.47;;;-7.13;73.98
66385;BME280;53426;55.872;37.462;2023-02-28T00:35:01;99661.47;;;-7.13;73.79
66385;BME280;53426;55.872;37.462;2023-02-28T00:37:29;99661.47;;;-7.13;73.96
66385;BME280;53426;55.872;37.462;2023-02-28T00:39:58;99660.53;;;-7.05;73.99
66385;BME280;53426;55.872;37.462;2023-02-28T00:42:24;99627.25;;;-7.20;74.05
66385;BME280;53426;55.872;37.462;2023-02-28T00:44:50;99653.59;;;-7.00;73.98
66385;BME280;53426;55.872;37.462;2023-02-28T00:47:16;99644.97;;;-6.97;73.95
66385;BME280;53426;55.872;37.462;2023-02-28T00:49:42;99640.81;;;-7.07;73.79
66385;BME280;53426;55.872;37.462;2023-02-28T00:52:09;99639.25;;;-7.21;73.87
66385;BME280;53426;55.872;37.462;2023-02-28T00:54:35;99623.03;;;-7.26;73.48
66385;BME280;53426;55.872;37.462;2023-02-28T00:57:01;99613.63;;;-7.28;73.76
66385;BME280;53426;55.872;37.462;2023-02-28T00:59:27;99619.63;;;-7.28;74.01
66385;BME280;53426;55.872;37.462;2023-02-28T01:01:53;99604.19;;;-7.31;73.96
66385;BME280;53426;55.872;37.462;2023-02-28T01:04:21;99601.53;;;-7.20;74.19
66385;BME280;53426;55.872;37.462;2023-02-28T01:06:47;99600.69;;;-7.21;73.67
66385;BME280;53426;55.872;37.462;2023-02-28T01:09:13;99593.81;;;-7.22;74.18
66385;BME280;53426;55.872;37.462;2023-02-28T01:11:41;99598.19;;;-7.28;73.85
66385;BME280;53426;55.872;37.462;2023-02-28T01:14:13;99593.88;;;-7.28;74.57
66385;BME280;53426;55.872;37.462;2023-02-28T01:16:40;99588.75;;;-7.28;73.85
66385;BME280;53426;55.872;37.462;2023-02-28T01:19:06;99577.66;;;-7.31;74.16
66385;BME280;53426;55.872;37.462;2023-02-28T01:21:33;99579.38;;;-7.32;74.36
66385;BME280;53426;55.872;37.462;2023-02-28T01:24:00;99569.94;;;-7.33;74.32
66385;BME280;53426;55.872;37.462;2023-02-28T01:26:26;99535.78;;;-7.45;74.54
66385;BME280;53426;55.872;37.462;2023-02-28T01:28:52;99549.50;;;-7.43;74.54
66385;BME280;53426;55.872;37.462;2023-02-28T01:31:19;99532.50;;;-7.56;74.18
66385;BME280;53426;55.872;37.462;2023-02-28T01:33:46;99525.63;;;-7.54;74.49
66385;BME280;53426;55.872;37.462;2023-02-28T01:36:15;99543.44;;;-7.39;74.74
66385;BME280;53426;55.872;37.462;2023-02-28T01:38:45;99525.50;;;-7.44;74.52
66385;BME280;53426;55.872;37.462;2023-02-28T01:46:12;99523.78;;;-7.42;74.67
66385;BME280;53426;55.872;37.462;2023-02-28T01:48:48;99525.44;;;-7.41;74.95
66385;BME280;53426;55.872;37.462;2023-02-28T01:51:54;99479.41;;;-7.59;74.42
66385;BME280;53426;55.872;37.462;2023-02-28T01:54:31;99494.72;;;-7.48;74.68
66385;BME280;53426;55.872;37.462;2023-02-28T01:57:12;99491.31;;;-7.52;74.30
66385;BME280;53426;55.872;37.462;2023-02-28T02:00:03;99505.78;;;-7.43;74.82
66385;BME280;53426;55.872;37.462;2023-02-28T02:02:44;99498.16;;;-7.51;74.40
66385;BME280;53426;55.872;37.462;2023-02-28T02:05:20;99496.44;;;-7.50;73.96
66385;BME280;53426;55.872;37.462;2023-02-28T02:07:48;99504.94;;;-7.47;74.80
66385;BME280;53426;55.872;37.462;2023-02-28T02:10:21;99502.28;;;-7.39;74.48
66385;BME280;53426;55.872;37.462;2023-02-28T02:18:53;99477.44;;;-7.39;74.62
66385;BME280;53426;55.872;37.462;2023-02-28T02:27:11;99474.81;;;-7.36;74.92
66385;BME280;53426;55.872;37.462;2023-02-28T02:30:18;99465.38;;;-7.35;74.25
66385;BME280;53426;55.872;37.462;2023-02-28T02:33:06;99472.28;;;-7.39;73.95
66385;BME280;53426;55.872;37.462;2023-02-28T02:35:52;99465.44;;;-7.40;74.97
66385;BME280;53426;55.872;37.462;2023-02-28T02:41:19;99448.31;;;-7.41;74.35
66385;BME280;53426;55.872;37.462;2023-02-28T02:44:37;99424.50;;;-7.55;74.95
66385;BME280;53426;55.872;37.462;2023-02-28T02:46:41;99444.91;;;-7.43;75.20
66385;BME280;53426;55.872;37.462;2023-02-28T02:49:22;99420.16;;;-7.51;74.98
66385;BME280;53426;55.872;37.462;2023-02-28T02:51:52;99417.44;;;-7.41;74.72
66385;BME280;53426;55.872;37.462;2023-02-28T02:54:27;99424.28;;;-7.37;75.39
66385;BME280;53426;55.872;37.462;2023-02-28T02:56:59;99411.56;;;-7.49;74.89
66385;BME280;53426;55.872;37.462;2023-02-28T02:59:28;99394.44;;;-7.50;75.29
66385;BME280;53426;55.872;37.462;2023-02-28T03:02:00;99397.00;;;-7.48;74.65
66385;BME280;53426;55.872;37.462;2023-02-28T03:04:31;99390.94;;;-7.44;74.87
66385;BME280;53426;55.872;37.462;2023-02-28T03:06:58;99397.78;;;-7.45;75.23
66385;BME280;53426;55.872;37.462;2023-02-28T03:09:26;99397.06;;;-7.53;75.21
66385;BME280;53426;55.872;37.462;2023-02-28T03:11:54;99402.06;;;-7.42;75.27
66385;BME280;53426;55.872;37.462;2023-02-28T03:14:49;99365.31;;;-7.52;74.35
66385;BME280;53426;55.872;37.462;2023-02-28T03:23:07;99374.66;;;-7.46;74.86
66385;BME280;53426;55.872;37.462;2023-02-28T03:25:56;99374.56;;;-7.39;74.82
66385;BME280;53426;55.872;37.462;2023-02-28T03:28:35;99355.81;;;-7.45;74.29
66385;BME280;53426;55.872;37.462;2023-02-28T03:31:15;99348.09;;;-7.45;73.97
66385;BME280;53426;55.872;37.462;2023-02-28T03:33:55;99356.72;;;-7.49;74.14
66385;BME280;53426;55.872;37.462;2023-02-28T03:36:38;99365.28;;;-7.47;74.27
66385;BME280;53426;55.872;37.462;2023-02-28T03:39:15;99362.66;;;-7.46;74.00
66385;BME280;53426;55.872;37.462;2023-02-28T03:41:47;99355.81;;;-7.47;74.51
66385;BME280;53426;55.872;37.462;2023-02-28T03:44:23;99358.34;;;-7.44;73.94
66385;BME280;53426;55.872;37.462;2023-02-28T03:46:56;99343.00;;;-7.48;74.35
66385;BME280;53426;55.872;37.462;2023-02-28T03:49:38;99327.56;;;-7.48;74.39
66385;BME280;53426;55.872;37.462;2023-02-28T03:52:09;99315.69;;;-7.55;74.27
66385;BME280;53426;55.872;37.462;2023-02-28T03:54:44;99293.56;;;-7.66;73.96
66385;BME280;53426;55.872;37.462;2023-02-28T03:57:18;99316.59;;;-7.59;73.89
66385;BME280;53426;55.872;37.462;2023-02-28T03:59:52;99319.00;;;-7.47;74.29
66385;BME280;53426;55.872;37.462;2023-02-28T04:02:21;99318.94;;;-7.44;73.75
66385;BME280;53426;55.872;37.462;2023-02-28T04:04:47;99316.28;;;-7.38;73.64
66385;BME280;53426;55.872;37.462;2023-02-28T04:07:14;99318.09;;;-7.45;73.74
66385;BME280;53426;55.872;37.462;2023-02-28T04:09:40;99315.44;;;-7.40;73.39
66385;BME280;53426;55.872;37.462;2023-02-28T04:12:07;99288.25;;;-7.55;73.82
66385;BME280;53426;55.872;37.462;2023-02-28T04:14:32;99305.31;;;-7.49;73.66
66385;BME280;53426;55.872;37.462;2023-02-28T04:17:01;99255.06;;;-7.70;73.39
66385;BME280;53426;55.872;37.462;2023-02-28T04:19:27;99277.19;;;-7.60;73.07
66385;BME280;53426;55.872;37.462;2023-02-28T04:21:53;99268.56;;;-7.56;73.50
66385;BME280;53426;55.872;37.462;2023-02-28T04:24:21;99277.13;;;-7.55;73.15
66385;BME280;53426;55.872;37.462;2023-02-28T04:26:51;99282.06;;;-7.43;73.49
66385;BME280;53426;55.872;37.462;2023-02-28T04:29:25;99265.03;;;-7.49;72.89
66385;BME280;53426;55.872;37.462;2023-02-28T04:31:57;99276.00;;;-7.39;72.39
66385;BME280;53426;55.872;37.462;2023-02-28T04:34:28;99261.53;;;-7.45;72.55
66385;BME280;53426;55.872;37.462;2023-02-28T04:36:55;99246.75;;;-7.34;72.69
66385;BME280;53426;55.872;37.462;2023-02-28T04:39:22;99226.19;;;-7.35;71.91
66385;BME280;53426;55.872;37.462;2023-02-28T04:41:48;99244.75;;;-7.16;71.55
66385;BME280;53426;55.872;37.462;2023-02-28T04:44:17;99237.31;;;-7.32;71.72
66385;BME280;53426;55.872;37.462;2023-02-28T04:46:43;99205.53;;;-7.31;71.81
66385;BME280;53426;55.872;37.462;2023-02-28T04:49:11;99247.81;;;-6.96;71.19
66385;BME280;53426;55.872;37.462;2023-02-28T04:51:37;99234.09;;;-6.54;71.08
66385;BME280;53426;55.872;37.462;2023-02-28T04:54:03;99215.22;;;-6.14;69.58
66385;BME280;53426;55.872;37.462;2023-02-28T04:56:30;99212.28;;;-5.62;67.88
66385;BME280;53426;55.872;37.462;2023-02-28T04:58:56;99206.31;;;-5.30;66.60
66385;BME280;53426;55.872;37.462;2023-02-28T05:01:26;99215.88;;;-5.01;65.63
66385;BME280;53426;55.872;37.462;2023-02-28T05:03:54;99207.56;;;-4.80;64.98
66385;BME280;53426;55.872;37.462;2023-02-28T05:06:23;99186.78;;;-4.46;63.36
66385;BME280;53426;55.872;37.462;2023-02-28T05:08:49;99167.72;;;-4.14;62.09
66385;BME280;53426;55.872;37.462;2023-02-28T05:11:20;99187.81;;;-3.68;61.27
66385;BME280;53426;55.872;37.462;2023-02-28T05:13:48;99188.69;;;-3.17;59.49
66385;BME280;53426;55.872;37.462;2023-02-28T05:16:15;99190.16;;;-3.10;58.84
66385;BME280;53426;55.872;37.462;2023-02-28T05:18:41;99166.50;;;-2.76;57.79
66385;BME280;53426;55.872;37.462;2023-02-28T05:21:22;99159.44;;;-2.72;57.60
66385;BME280;53426;55.872;37.462;2023-02-28T05:23:49;99151.63;;;-2.47;56.02
66385;BME280;53426;55.872;37.462;2023-02-28T05:26:15;99158.69;;;-2.74;55.85
66385;BME280;53426;55.872;37.462;2023-02-28T05:28:41;99134.22;;;-2.22;55.36
66385;BME280;53426;55.872;37.462;2023-02-28T05:31:10;99141.25;;;-1.81;54.30
66385;BME280;53426;55.872;37.462;2023-02-28T05:33:36;99123.56;;;-1.93;53.86
66385;BME280;53426;55.872;37.462;2023-02-28T05:36:02;99125.78;;;-1.84;53.44
66385;BME280;53426;55.872;37.462;2023-02-28T05:38:28;99128.88;;;-1.54;53.38
66385;BME280;53426;55.872;37.462;2023-02-28T05:40:54;99108.56;;;-1.64;52.37
66385;BME280;53426;55.872;37.462;2023-02-28T05:43:19;99116.28;;;-1.43;52.54
66385;BME280;53426;55.872;37.462;2023-02-28T05:45:45;99081.53;;;-1.40;51.40
66385;BME280;53426;55.872;37.462;2023-02-28T05:48:12;99072.06;;;-0.82;50.03
66385;BME280;53426;55.872;37.462;2023-02-28T05:50:38;99095.38;;;-0.62;49.78
66385;BME280;53426;55.872;37.462;2023-02-28T05:53:04;99085.44;;;-0.54;49.33
66385;BME280;53426;55.872;37.462;2023-02-28T05:55:32;99082.97;;;-0.38;49.16
66385;BME280;53426;55.872;37.462;2023-02-28T05:57:58;99058.19;;;-0.64;49.50
66385;BME280;53426;55.872;37.462;2023-02-28T06:00:24;99067.03;;;-1.05;49.99
66385;BME280;53426;55.872;37.462;2023-02-28T06:02:51;99028.38;;;-1.32;50.74
66385;BME280;53426;55.872;37.462;2023-02-28T06:05:21;99044.81;;;-1.31;51.24
66385;BME280;53426;55.872;37.462;2023-02-28T06:07:50;99063.03;;;-0.56;53.36
66385;BME280;53426;55.872;37.462;2023-02-28T06:10:16;99052.44;;;-0.89;52.85
66385;BME280;53426;55.872;37.462;2023-02-28T06:12:42;99044.84;;;-0.56;50.65
66385;BME280;53426;55.872;37.462;2023-02-28T06:15:12;99026.56;;;-0.92;51.23
66385;BME280;53426;55.872;37.462;2023-02-28T06:18:04;99038.44;;;-0.87;52.08
66385;BME280;53426;55.872;37.462;2023-02-28T06:20:30;98953.41;;;-1.78;51.11
66385;BME280;53426;55.872;37.462;2023-02-28T06:26:12;99007.41;;;-2.28;52.15
66385;BME280;53426;55.872;37.462;2023-02-28T06:31:23;98984.41;;;-3.01;53.68
66385;BME280;53426;55.872;37.462;2023-02-28T06:33:51;98995.78;;;-2.83;53.97
66385;BME280;53426;55.872;37.462;2023-02-28T06:36:45;98990.75;;;-2.86;54.37
66385;BME280;53426;55.872;37.462;2023-02-28T06:39:39;98977.56;;;-2.80;54.74
66385;BME280;53426;55.872;37.462;2023-02-28T06:42:05;98905.50;;;-3.14;54.52
66385;BME280;53426;55.872;37.462;2023-02-28T06:44:55;98950.50;;;-2.73;54.99
66385;BME280;53426;55.872;37.462;2023-02-28T06:47:22;98955.69;;;-2.73;55.13
66385;BME280;53426;55.872;37.462;2023-02-28T06:49:48;98965.06;;;-2.71;55.40
66385;BME280;53426;55.872;37.462;2023-02-28T06:59:00;98936.38;;;-3.10;56.97
66385;BME280;53426;55.872;37.462;2023-02-28T07:01:26;98940.72;;;-3.10;57.14
66385;BME280;53426;55.872;37.462;2023-02-28T07:04:26;98851.53;;;-3.47;56.89
66385;BME280;53426;55.872;37.462;2023-02-28T07:06:52;98787.84;;;-3.94;57.10
66385;BME280;53426;55.872;37.462;2023-02-28T07:09:17;98928.69;;;-3.11;57.29
66385;BME280;53426;55.872;37.462;2023-02-28T07:11:44;98918.06;;;-2.83;57.61
66385;BME280;53426;55.872;37.462;2023-02-28T07:14:10;98908.94;;;-2.92;57.12
66385;BME280;53426;55.872;37.462;2023-02-28T07:16:36;98900.97;;;-2.87;57.93
66385;BME280;53426;55.872;37.462;2023-02-28T07:19:02;98896.63;;;-2.65;57.32
66385;BME280;53426;55.872;37.462;2023-02-28T07:21:27;98900.22;;;-2.47;57.30
66385;BME280;53426;55.872;37.462;2023-02-28T07:23:53;98894.47;;;-2.56;57.34
66385;BME280;53426;55.872;37.462;2023-02-28T07:26:20;98886.78;;;-2.57;57.59
66385;BME280;53426;55.872;37.462;2023-02-28T07:28:47;98878.19;;;-2.37;57.63
66385;BME280;53426;55.872;37.462;2023-02-28T07:31:14;98893.03;;;-2.41;57.09
66385;BME280;53426;55.872;37.462;2023-02-28T07:33:40;98889.00;;;-2.28;57.41
66385;BME280;53426;55.872;37.462;2023-02-28T07:36:17;98879.81;;;-2.35;57.54
66385;BME280;53426;55.872;37.462;2023-02-28T07:38:47;98879.16;;;-2.20;57.05
66385;BME280;53426;55.872;37.462;2023-02-28T07:41:15;98881.09;;;-2.25;58.00
66385;BME280;53426;55.872;37.462;2023-02-28T07:43:41;98860.09;;;-2.39;57.77
66385;BME280;53426;55.872;37.462;2023-02-28T07:46:09;98876.81;;;-2.46;58.34
66385;BME280;53426;55.872;37.462;2023-02-28T07:48:38;98885.34;;;-2.44;59.51
66385;BME280;53426;55.872;37.462;2023-02-28T07:51:05;98874.22;;;-2.46;59.01
66385;BME280;53426;55.872;37.462;2023-02-28T07:53:35;98859.03;;;-2.55;59.34
66385;BME280;53426;55.872;37.462;2023-02-28T07:56:14;98865.88;;;-2.53;59.52
66385;BME280;53426;55.872;37.462;2023-02-28T07:58:40;98857.69;;;-2.64;59.72
66385;BME280;53426;55.872;37.462;2023-02-28T08:01:10;98851.63;;;-2.63;60.42
66385;BME280;53426;55.872;37.462;2023-02-28T08:06:54;98843.50;;;-2.35;59.70
66385;BME280;53426;55.872;37.462;2023-02-28T08:09:23;98742.22;;;-2.89;59.17
66385;BME280;53426;55.872;37.462;2023-02-28T08:14:50;98815.06;;;-2.36;60.20
66385;BME280;53426;55.872;37.462;2023-02-28T08:17:15;98786.88;;;-2.44;59.83
66385;BME280;53426;55.872;37.462;2023-02-28T08:22:53;98752.19;;;-2.41;60.26
66385;BME280;53426;55.872;37.462;2023-02-28T08:29:01;98856.56;;;-2.18;60.88
66385;BME280;53426;55.872;37.462;2023-02-28T08:31:27;98845.97;;;-2.32;61.00
66385;BME280;53426;55.872;37.462;2023-02-28T08:33:53;98861.50;;;-2.12;60.76
66385;BME280;53426;55.872;37.462;2023-02-28T08:36:23;98858.63;;;-2.05;61.31
66385;BME280;53426;55.872;37.462;2023-02-28T08:38:50;98862.28;;;-2.09;61.04
66385;BME280;53426;55.872;37.462;2023-02-28T08:41:16;98850.19;;;-2.29;61.27
66385;BME280;53426;55.872;37.462;2023-02-28T08:43:42;98849.59;;;-2.36;61.82
66385;BME280;53426;55.872;37.462;2023-02-28T08:46:11;98853.78;;;-2.33;62.33
66385;BME280;53426;55.872;37.462;2023-02-28T08:48:37;98848.56;;;-2.32;62.50
66385;BME280;53426;55.872;37.462;2023-02-28T08:51:08;98832.84;;;-2.29;62.39
66385;BME280;53426;55.872;37.462;2023-02-28T08:53:36;98835.97;;;-2.21;62.07
66385;BME280;53426;55.872;37.462;2023-02-28T08:56:05;98826.75;;;-2.28;62.69
66385;BME280;53426;55.872;37.462;2023-02-28T08:58:33;98819.34;;;-2.17;63.10
66385;BME280;53426;55.872;37.462;2023-02-28T09:01:00;98813.22;;;-2.14;62.67
66385;BME280;53426;55.872;37.462;2023-02-28T09:03:26;98798.13;;;-2.25;62.48
66385;BME280;53426;55.872;37.462;2023-02-28T09:05:57;98803.25;;;-2.04;62.88
66385;BME280;53426;55.872;37.462;2023-02-28T09:08:27;98799.56;;;-1.99;62.64
66385;BME280;53426;55.872;37.462;2023-02-28T09:10:54;98787.69;;;-2.04;62.53
66385;BME280;53426;55.872;37.462;2023-02-28T09:13:22;98775.66;;;-1.87;62.71
66385;BME280;53426;55.872;37.462;2023-02-28T09:15:48;98777.81;;;-1.78;61.84
66385;BME280;53426;55.872;37.462;2023-02-28T09:18:14;98769.19;;;-1.78;62.20
66385;BME280;53426;55.872;37.462;2023-02-28T09:20:41;98794.28;;;-1.79;62.42
66385;BME280;53426;55.872;37.462;2023-02-28T09:23:08;98802.97;;;-1.80;62.38
66385;BME280;53426;55.872;37.462;2023-02-28T09:25:35;98786.44;;;-1.96;63.07
66385;BME280;53426;55.872;37.462;2023-02-28T09:28:01;98798.63;;;-1.79;62.57
66385;BME280;53426;55.872;37.462;2023-02-28T09:30:27;98777.34;;;-1.86;62.26
66385;BME280;53426;55.872;37.462;2023-02-28T09:32:53;98794.50;;;-2.02;63.12
66385;BME280;53426;55.872;37.462;2023-02-28T09:35:21;98769.97;;;-1.76;63.50
66385;BME280;53426;55.872;37.462;2023-02-28T09:37:51;98776.97;;;-1.78;62.84
66385;BME280;53426;55.872;37.462;2023-02-28T09:40:24;98749.44;;;-1.81;62.59
66385;BME280;53426;55.872;37.462;2023-02-28T09:42:53;98756.22;;;-1.78;63.41
66385;BME280;53426;55.872;37.462;2023-02-28T09:47:52;98742.72;;;-1.67;62.92
66385;BME280;53426;55.872;37.462;2023-02-28T09:50:38;98739.78;;;-1.79;63.36
66385;BME280;53426;55.872;37.462;2023-02-28T09:53:15;98729.00;;;-1.88;63.46
66385;BME280;53426;55.872;37.462;2023-02-28T09:55:48;98729.28;;;-1.94;63.94
66385;BME280;53426;55.872;37.462;2023-02-28T09:58:44;98723.00;;;-2.07;63.64
66385;BME280;53426;55.872;37.462;2023-02-28T10:01:23;98704.28;;;-2.14;64.23
66385;BME280;53426;55.872;37.462;2023-02-28T10:03:56;98717.31;;;-1.97;64.54
66385;BME280;53426;55.872;37.462;2023-02-28T10:06:29;98719.75;;;-1.94;64.36
66385;BME280;53426;55.872;37.462;2023-02-28T10:11:46;98697.25;;;-1.93;64.47
66385;BME280;53426;55.872;37.462;2023-02-28T10:14:21;98686.09;;;-1.95;64.97
66385;BME280;53426;55.872;37.462;2023-02-28T10:17:00;98705.47;;;-2.02;64.76
66385;BME280;53426;55.872;37.462;2023-02-28T10:19:34;98698.72;;;-2.06;64.74
66385;BME280;53426;55.872;37.462;2023-02-28T10:22:19;98699.22;;;-1.98;65.26
66385;BME280;53426;55.872;37.462;2023-02-28T10:24:50;98707.56;;;-1.92;65.19
66385;BME280;53426;55.872;37.462;2023-02-28T10:27:18;98692.53;;;-1.85;64.58
66385;BME280;53426;55.872;37.462;2023-02-28T10:29:46;98658.00;;;-2.04;64.92
66385;BME280;53426;55.872;37.462;2023-02-28T10:32:16;98663.03;;;-2.01;65.02
66385;BME280;53426;55.872;37.462;2023-02-28T10:34:43;98692.34;;;-1.99;65.37
66385;BME280;53426;55.872;37.462;2023-02-28T10:37:11;98691.84;;;-1.89;65.21
66385;BME280;53426;55.872;37.462;2023-02-28T10:39:42;98686.72;;;-1.90;65.51
66385;BME280;53426;55.872;37.462;2023-02-28T10:42:40;98667.03;;;-1.94;65.46
66385;BME280;53426;55.872;37.462;2023-02-28T10:45:16;98659.75;;;-2.05;65.59
66385;BME280;53426;55.872;37.462;2023-02-28T10:47:53;98660.16;;;-1.95;65.85
66385;BME280;53426;55.872;37.462;2023-02-28T10:50:37;98652.94;;;-1.89;65.82
66385;BME280;53426;55.872;37.462;2023-02-28T10:53:30;98654.41;;;-1.83;65.73
66385;BME280;53426;55.872;37.462;2023-02-28T11:01:14;98629.88;;;-1.95;66.37
66385;BME280;53426;55.872;37.462;2023-02-28T11:03:41;98628.75;;;-1.89;66.37
66385;BME280;53426;55.872;37.462;2023-02-28T11:06:12;98603.25;;;-1.98;66.24
66385;BME280;53426;55.872;37.462;2023-02-28T11:08:49;98640.75;;;-1.87;66.70
66385;BME280;53426;55.872;37.462;2023-02-28T11:11:16;98642.94;;;-1.79;66.61
66385;BME280;53426;55.872;37.462;2023-02-28T11:14:05;98604.16;;;-1.99;66.63
66385;BME280;53426;55.872;37.462;2023-02-28T11:16:40;98574.56;;;-1.95;66.49
66385;BME280;53426;55.872;37.462;2023-02-28T11:19:17;98614.50;;;-1.81;66.56
66385;BME280;53426;55.872;37.462;2023-02-28T11:21:53;98634.22;;;-1.59;67.41
66385;BME280;53426;55.872;37.462;2023-02-28T11:24:33;98577.09;;;-1.77;68.04
66385;BME280;53426;55.872;37.462;2023-02-28T11:27:01;98622.69;;;-1.37;69.26
66385;BME280;53426;55.872;37.462;2023-02-28T11:29:30;98602.16;;;-1.58;68.83
66385;BME280;53426;55.872;37.462;2023-02-28T11:32:21;98615.56;;;-1.50;68.86
66385;BME280;53426;55.872;37.462;2023-02-28T11:35:12;98609.53;;;-1.51;69.24
66385;BME280;53426;55.872;37.462;2023-02-28T11:37:41;98603.91;;;-1.59;69.52
66385;BME280;53426;55.872;37.462;2023-02-28T11:55:54;98565.59;;;-1.54;71.43
66385;BME280;53426;55.872;37.462;2023-02-28T12:08:11;98587.56;;;-1.44;72.59
66385;BME280;53426;55.872;37.462;2023-02-28T12:41:59;98528.03;;;-1.81;73.94
66385;BME280;53426;55.872;37.462;2023-02-28T12:44:36;98407.78;;;-2.47;73.63
66385;BME280;53426;55.872;37.462;2023-02-28T12:47:13;98490.19;;;-1.85;74.22
66385;BME280;53426;55.872;37.462;2023-02-28T12:49:49;98484.22;;;-1.70;74.05
66385;BME280;53426;55.872;37.462;2023-02-28T13:22:45;98477.31;;;-1.54;73.61
66385;BME280;53426;55.872;37.462;2023-02-28T13:27:52;98474.06;;;-1.42;73.49
66385;BME280;53426;55.872;37.462;2023-02-28T13:33:34;98439.06;;;-1.35;73.65
66385;BME280;53426;55.872;37.462;2023-02-28T13:38:46;98422.34;;;-1.29;73.54
66385;BME280;53426;55.872;37.462;2023-02-28T13:51:52;98452.84;;;-1.17;73.38
66385;BME280;53426;55.872;37.462;2023-02-28T13:58:21;98330.84;;;-1.97;73.58
66385;BME280;53426;55.872;37.462;2023-02-28T14:05:13;98328.47;;;-2.01;73.34
66385;BME280;53426;55.872;37.462;2023-02-28T14:07:49;98412.78;;;-1.44;73.94
66385;BME280;53426;55.872;37.462;2023-02-28T14:12:58;98443.94;;;-1.29;74.10
66385;BME280;53426;55.872;37.462;2023-02-28T14:20:47;98437.50;;;-1.21;74.54
66385;BME280;53426;55.872;37.462;2023-02-28T14:23:49;98431.47;;;-1.22;74.61
66385;BME280;53426;55.872;37.462;2023-02-28T14:44:22;98404.66;;;-1.22;75.48
66385;BME280;53426;55.872;37.462;2023-02-28T14:47:11;98395.19;;;-1.23;75.79
66385;BME280;53426;55.872;37.462;2023-02-28T14:49:44;98401.81;;;-1.18;75.77
66385;BME280;53426;55.872;37.462;2023-02-28T14:52:22;98388.06;;;-1.20;75.74
66385;BME280;53426;55.872;37.462;2023-02-28T14:55:16;98396.47;;;-1.15;75.88
66385;BME280;53426;55.872;37.462;2023-02-28T14:57:56;98406.94;;;-1.16;75.76
66385;BME280;53426;55.872;37.462;2023-02-28T15:00:28;98408.69;;;-1.17;75.85
66385;BME280;53426;55.872;37.462;2023-02-28T15:02:56;98393.69;;;-1.28;76.19
66385;BME280;53426;55.872;37.462;2023-02-28T15:05:31;98399.28;;;-1.19;75.80
66385;BME280;53426;55.872;37.462;2023-02-28T15:11:16;98409.72;;;-1.04;76.50
66385;BME280;53426;55.872;37.462;2023-02-28T15:13:54;98400.69;;;-0.98;76.09
66385;BME280;53426;55.872;37.462;2023-02-28T15:16:26;98358.19;;;-1.27;75.79
66385;BME280;53426;55.872;37.462;2023-02-28T15:21:46;98388.41;;;-0.95;75.63
66385;BME280;53426;55.872;37.462;2023-02-28T15:24:18;98353.13;;;-1.14;75.98
66385;BME280;53426;55.872;37.462;2023-02-28T15:27:00;98383.72;;;-0.88;76.17
66385;BME280;53426;55.872;37.462;2023-02-28T15:29:41;98352.97;;;-1.11;75.96
66385;BME280;53426;55.872;37.462;2023-02-28T15:32:30;98386.88;;;-0.83;75.92
66385;BME280;53426;55.872;37.462;2023-02-28T15:34:58;98385.13;;;-0.82;76.05
66385;BME280;53426;55.872;37.462;2023-02-28T15:37:46;98372.88;;;-0.80;75.77
66385;BME280;53426;55.872;37.462;2023-02-28T15:40:23;98349.78;;;-1.01;75.92
66385;BME280;53426;55.872;37.462;2023-02-28T15:43:07;98337.94;;;-0.91;75.65
66385;BME280;53426;55.872;37.462;2023-02-28T15:45:43;98366.31;;;-0.72;75.69
66385;BME280;53426;55.872;37.462;2023-02-28T15:48:23;98322.97;;;-1.01;75.54
66385;BME280;53426;55.872;37.462;2023-02-28T15:50:53;98382.16;;;-0.61;75.40
66385;BME280;53426;55.872;37.462;2023-02-28T15:59:06;98310.19;;;-0.90;76.01
66385;BME280;53426;55.872;37.462;2023-02-28T16:01:35;98287.84;;;-1.08;76.08
66385;BME280;53426;55.872;37.462;2023-02-28T16:07:13;98270.78;;;-1.12;76.34
66385;BME280;53426;55.872;37.462;2023-02-28T16:12:41;98269.66;;;-1.08;76.56
66385;BME280;53426;55.872;37.462;2023-02-28T16:15:32;98276.97;;;-0.99;76.56
66385;BME280;53426;55.872;37.462;2023-02-28T16:18:20;98348.38;;;-0.47;76.45
66385;BME280;53426;55.872;37.462;2023-02-28T16:20:47;98312.81;;;-0.60;76.38
66385;BME280;53426;55.872;37.462;2023-02-28T16:23:13;98297.84;;;-0.87;76.54
66385;BME280;53426;55.872;37.462;2023-02-28T16:25:44;98291.31;;;-0.78;76.36
66385;BME280;53426;55.872;37.462;2023-02-28T16:28:29;98351.38;;;-0.38;76.63
66385;BME280;53426;55.872;37.462;2023-02-28T16:31:02;98221.69;;;-1.17;76.86
66385;BME280;53426;55.872;37.462;2023-02-28T16:33:38;98311.81;;;-0.73;76.76
66385;BME280;53426;55.872;37.462;2023-02-28T16:36:06;98349.50;;;-0.36;77.44
66385;BME280;53426;55.872;37.462;2023-02-28T16:53:08;98330.88;;;-0.59;77.82
66385;BME280;53426;55.872;37.462;2023-02-28T16:55:35;98281.81;;;-0.93;78.63
66385;BME280;53426;55.872;37.462;2023-02-28T16:58:02;98322.72;;;-0.67;78.99
66385;BME280;53426;55.872;37.462;2023-02-28T17:00:30;98326.53;;;-0.58;78.97
66385;BME280;53426;55.872;37.462;2023-02-28T17:02:57;98317.66;;;-0.70;78.87
66385;BME280;53426;55.872;37.462;2023-02-28T17:05:25;98323.72;;;-0.69;78.87
66385;BME280;53426;55.872;37.462;2023-02-28T17:07:51;98309.78;;;-0.82;78.60